createdAt,value
2023-04-15T00:00:31.615Z,31.41
2023-04-15T00:01:31.617Z,31.40
2023-04-15T00:02:31.659Z,31.41
2023-04-15T00:03:31.807Z,31.38
2023-04-15T00:04:31.710Z,31.41
2023-04-15T00:05:31.657Z,31.40
2023-04-15T00:06:31.695Z,31.38
2023-04-15T00:07:31.689Z,31.37
2023-04-15T00:08:31.760Z,31.36
2023-04-15T00:09:31.762Z,31.36
2023-04-15T00:10:31.807Z,31.35
2023-04-15T00:11:31.829Z,31.34
2023-04-15T00:12:31.839Z,31.33
2023-04-15T00:13:31.909Z,31.29
2023-04-15T00:14:31.895Z,31.32
2023-04-15T00:15:31.914Z,31.32
2023-04-15T00:16:31.979Z,31.31
2023-04-15T00:17:32.007Z,31.32
2023-04-15T00:18:32.030Z,31.32
2023-04-15T00:19:32.082Z,31.31
2023-04-15T00:20:32.092Z,31.29
2023-04-15T00:21:32.118Z,31.26
2023-04-15T00:22:32.194Z,31.29
2023-04-15T00:23:32.192Z,31.30
2023-04-15T00:24:32.220Z,31.29
2023-04-15T00:25:32.252Z,31.27
2023-04-15T00:26:32.292Z,31.27
2023-04-15T00:27:32.303Z,31.27
2023-04-15T00:28:32.346Z,31.27
2023-04-15T00:29:32.405Z,31.25
2023-04-15T00:30:32.466Z,31.25
2023-04-15T00:31:32.447Z,31.21
2023-04-15T00:32:32.511Z,31.25
2023-04-15T00:33:32.517Z,31.23
2023-04-15T00:34:32.544Z,31.24
2023-04-15T00:35:32.576Z,31.22
2023-04-15T00:36:32.657Z,31.22
2023-04-15T00:37:32.626Z,31.23
2023-04-15T00:38:32.685Z,31.22
2023-04-15T00:39:32.693Z,31.21
2023-04-15T00:40:32.733Z,31.23
2023-04-15T00:41:32.788Z,31.24
2023-04-15T00:42:32.831Z,31.22
2023-04-15T00:43:32.831Z,31.21
2023-04-15T00:44:32.842Z,31.19
2023-04-15T00:45:32.898Z,31.19
2023-04-15T00:46:32.913Z,31.20
2023-04-15T00:47:32.958Z,31.21
2023-04-15T00:48:32.971Z,31.19
2023-04-15T00:49:33.018Z,31.19
2023-04-15T00:50:33.093Z,31.19
2023-04-15T00:51:33.056Z,31.19
2023-04-15T00:52:33.094Z,31.20
2023-04-15T00:53:33.158Z,31.15
2023-04-15T00:54:33.161Z,31.16
2023-04-15T00:55:33.192Z,31.14
2023-04-15T00:56:33.207Z,31.14
2023-04-15T00:57:33.263Z,31.13
2023-04-15T00:58:33.275Z,31.14
2023-04-15T00:59:33.540Z,31.13
2023-04-15T01:00:33.348Z,31.15
2023-04-15T01:01:33.398Z,31.11
2023-04-15T01:02:33.530Z,31.11
2023-04-15T01:03:33.603Z,31.11
2023-04-15T01:04:33.629Z,31.10
2023-04-15T01:05:33.523Z,31.10
2023-04-15T01:06:33.561Z,31.12
2023-04-15T01:07:33.585Z,31.08
2023-04-15T01:08:33.631Z,31.07
2023-04-15T01:09:33.664Z,31.06
2023-04-15T01:10:33.693Z,31.07
2023-04-15T01:11:33.721Z,31.06
2023-04-15T01:12:33.786Z,31.05
2023-04-15T01:13:33.799Z,31.07
2023-04-15T01:14:33.871Z,31.09
2023-04-15T01:15:33.870Z,31.05
2023-04-15T01:16:33.992Z,31.04
2023-04-15T01:17:33.972Z,31.06
2023-04-15T01:18:33.960Z,31.05
2023-04-15T01:19:34.057Z,31.05
2023-04-15T01:20:34.041Z,31.05
2023-04-15T01:21:34.089Z,31.04
2023-04-15T01:22:34.104Z,31.05
2023-04-15T01:23:34.172Z,31.03
2023-04-15T01:24:34.229Z,31.04
2023-04-15T01:25:34.228Z,31.01
2023-04-15T01:26:34.254Z,31.03
2023-04-15T01:27:34.309Z,31.02
2023-04-15T01:28:35.047Z,31.01
2023-04-15T01:29:34.409Z,31.02
2023-04-15T01:30:34.429Z,31.01
2023-04-15T01:31:34.463Z,31.01
2023-04-15T01:32:34.519Z,31.01
2023-04-15T01:33:34.520Z,31.02
2023-04-15T01:34:35.769Z,31.01
2023-04-15T01:35:34.625Z,31.01
2023-04-15T01:36:34.622Z,31.03
2023-04-15T01:37:34.666Z,31.03
2023-04-15T01:38:34.722Z,31.01
2023-04-15T01:39:34.800Z,30.98
2023-04-15T01:40:34.766Z,30.99
2023-04-15T01:41:34.780Z,30.98
2023-04-15T01:42:34.848Z,30.95
2023-04-15T01:43:34.870Z,30.95
2023-04-15T01:44:34.939Z,30.97
2023-04-15T01:45:34.949Z,30.95
2023-04-15T01:46:35.010Z,30.97
2023-04-15T01:47:35.110Z,30.94
2023-04-15T01:48:35.062Z,30.93
2023-04-15T01:49:35.599Z,30.92
2023-04-15T01:50:35.137Z,30.91
2023-04-15T01:51:35.170Z,30.88
2023-04-15T01:52:35.200Z,30.88
2023-04-15T01:53:35.257Z,30.86
2023-04-15T01:54:35.340Z,30.86
2023-04-15T01:55:35.336Z,30.85
2023-04-15T01:56:35.378Z,30.84
2023-04-15T01:57:35.420Z,30.86
2023-04-15T01:58:35.477Z,30.83
2023-04-15T01:59:35.521Z,30.80
2023-04-15T02:00:35.613Z,30.79
2023-04-15T02:01:35.604Z,30.79
2023-04-15T02:02:35.789Z,30.78
2023-04-15T02:03:35.746Z,30.81
2023-04-15T02:04:35.834Z,30.78
2023-04-15T02:05:35.802Z,30.79
2023-04-15T02:06:35.863Z,30.76
2023-04-15T02:07:35.891Z,30.75
2023-04-15T02:08:35.947Z,30.74
2023-04-15T02:09:36.009Z,30.72
2023-04-15T02:10:36.044Z,30.74
2023-04-15T02:11:36.111Z,30.72
2023-04-15T02:12:36.158Z,30.67
2023-04-15T02:13:36.243Z,30.69
2023-04-15T02:14:36.635Z,30.70
2023-04-15T02:15:36.295Z,30.71
2023-04-15T02:16:36.402Z,30.70
2023-04-15T02:17:36.430Z,30.69
2023-04-15T02:18:36.458Z,30.68
2023-04-15T02:19:36.514Z,30.68
2023-04-15T02:20:36.542Z,30.67
2023-04-15T02:21:36.603Z,30.67
2023-04-15T02:22:36.641Z,30.67
2023-04-15T02:23:36.669Z,30.66
2023-04-15T02:24:36.778Z,30.67
2023-04-15T02:25:36.786Z,30.66
2023-04-15T02:26:36.804Z,30.65
2023-04-15T02:27:36.880Z,30.66
2023-04-15T02:28:36.892Z,30.64
2023-04-15T02:29:36.965Z,30.64
2023-04-15T02:30:37.005Z,30.61
2023-04-15T02:31:37.176Z,30.64
2023-04-15T02:32:37.106Z,30.62
2023-04-15T02:33:37.127Z,30.62
2023-04-15T02:34:37.183Z,30.61
2023-04-15T02:35:37.224Z,30.59
2023-04-15T02:36:37.256Z,30.57
2023-04-15T02:37:37.312Z,30.55
2023-04-15T02:38:37.336Z,30.57
2023-04-15T02:39:37.459Z,30.54
2023-04-15T02:40:37.446Z,30.53
2023-04-15T02:41:37.467Z,30.52
2023-04-15T02:42:37.524Z,30.50
2023-04-15T02:43:37.578Z,30.49
2023-04-15T02:44:37.658Z,30.47
2023-04-15T02:45:37.719Z,30.45
2023-04-15T02:46:37.709Z,30.43
2023-04-15T02:47:37.778Z,30.42
2023-04-15T02:48:37.816Z,30.39
2023-04-15T02:49:37.880Z,30.40
2023-04-15T02:50:37.892Z,30.38
2023-04-15T02:51:37.951Z,30.36
2023-04-15T02:52:37.989Z,30.34
2023-04-15T02:53:38.134Z,30.31
2023-04-15T02:54:38.094Z,30.27
2023-04-15T02:55:38.137Z,30.26
2023-04-15T02:56:38.169Z,30.26
2023-04-15T02:57:38.203Z,30.19
2023-04-15T02:58:38.273Z,30.19
2023-04-15T02:59:38.638Z,30.15
2023-04-15T03:00:38.361Z,30.14
2023-04-15T03:01:38.442Z,30.12
2023-04-15T03:02:38.630Z,30.11
2023-04-15T03:03:38.616Z,30.08
2023-04-15T03:04:38.561Z,30.05
2023-04-15T03:05:38.615Z,30.06
2023-04-15T03:06:38.625Z,30.02
2023-04-15T03:07:38.704Z,29.96
2023-04-15T03:08:38.767Z,29.95
2023-04-15T03:09:38.786Z,29.92
2023-04-15T03:10:38.825Z,29.90
2023-04-15T03:11:38.861Z,29.87
2023-04-15T03:12:38.915Z,29.87
2023-04-15T03:13:38.981Z,29.88
2023-04-15T03:14:39.010Z,29.85
2023-04-15T03:15:39.118Z,29.84
2023-04-15T03:16:39.114Z,29.82
2023-04-15T03:17:39.209Z,29.80
2023-04-15T03:18:39.227Z,29.78
2023-04-15T03:19:39.304Z,29.80
2023-04-15T03:20:39.322Z,29.76
2023-04-15T03:21:39.372Z,29.77
2023-04-15T03:22:39.410Z,29.78
2023-04-15T03:23:39.459Z,29.78
2023-04-15T03:24:39.537Z,29.76
2023-04-15T03:25:39.555Z,29.77
2023-04-15T03:26:39.609Z,29.76
2023-04-15T03:27:39.701Z,29.73
2023-04-15T03:28:39.707Z,29.73
2023-04-15T03:29:39.790Z,29.73
2023-04-15T03:30:39.882Z,29.76
2023-04-15T03:31:39.930Z,29.76
2023-04-15T03:32:40.023Z,29.71
2023-04-15T03:33:39.969Z,29.72
2023-04-15T03:34:40.013Z,29.70
2023-04-15T03:35:40.110Z,29.72
2023-04-15T03:36:40.098Z,29.71
2023-04-15T03:37:40.144Z,29.71
2023-04-15T03:38:40.205Z,29.68
2023-04-15T03:39:40.272Z,29.65
2023-04-15T03:40:40.317Z,29.66
2023-04-15T03:41:40.350Z,29.62
2023-04-15T03:42:40.397Z,29.63
2023-04-15T03:43:40.446Z,29.60
2023-04-15T03:44:40.520Z,29.58
2023-04-15T03:45:40.592Z,29.54
2023-04-15T03:46:40.632Z,29.55
2023-04-15T03:47:40.810Z,29.51
2023-04-15T03:48:40.703Z,29.49
2023-04-15T03:49:40.766Z,29.50
2023-04-15T03:50:40.835Z,29.47
2023-04-15T03:51:40.870Z,29.43
2023-04-15T03:52:40.927Z,29.42
2023-04-15T03:53:40.953Z,29.40
2023-04-15T03:54:41.012Z,29.37
2023-04-15T03:55:41.050Z,29.34
2023-04-15T03:56:41.104Z,29.33
2023-04-15T03:57:41.155Z,29.33
2023-04-15T03:58:41.261Z,29.34
2023-04-15T03:59:41.270Z,29.28
2023-04-15T04:00:41.327Z,29.30
2023-04-15T04:01:41.412Z,29.27
2023-04-15T04:02:41.711Z,29.26
2023-04-15T04:03:41.514Z,29.25
2023-04-15T04:04:41.569Z,29.22
2023-04-15T04:05:41.593Z,29.21
2023-04-15T04:06:41.608Z,29.18
2023-04-15T04:07:41.669Z,29.17
2023-04-15T04:08:41.685Z,29.12
2023-04-15T04:09:41.721Z,29.10
2023-04-15T04:10:41.770Z,29.10
2023-04-15T04:11:41.802Z,29.09
2023-04-15T04:12:41.868Z,29.13
2023-04-15T04:13:41.910Z,29.08
2023-04-15T04:14:41.950Z,29.06
2023-04-15T04:15:42.080Z,29.06
2023-04-15T04:16:42.133Z,29.06
2023-04-15T04:17:42.108Z,29.02
2023-04-15T04:18:42.179Z,28.99
2023-04-15T04:19:43.122Z,29.00
2023-04-15T04:20:42.268Z,29.00
2023-04-15T04:21:42.332Z,28.98
2023-04-15T04:22:42.352Z,28.95
2023-04-15T04:23:42.429Z,28.94
2023-04-15T04:24:42.464Z,28.92
2023-04-15T04:25:42.516Z,28.93
2023-04-15T04:26:42.582Z,28.87
2023-04-15T04:27:42.603Z,28.87
2023-04-15T04:28:42.619Z,28.87
2023-04-15T04:29:42.711Z,28.86
2023-04-15T04:30:42.741Z,28.84
2023-04-15T04:31:42.869Z,28.78
2023-04-15T04:32:42.864Z,28.77
2023-04-15T04:33:42.909Z,28.81
2023-04-15T04:34:42.939Z,28.80
2023-04-15T04:35:42.954Z,28.79
2023-04-15T04:36:43.018Z,28.78
2023-04-15T04:37:43.188Z,28.75
2023-04-15T04:38:43.105Z,28.72
2023-04-15T04:39:43.181Z,28.73
2023-04-15T04:40:43.225Z,28.71
2023-04-15T04:41:43.256Z,28.71
2023-04-15T04:42:43.284Z,28.71
2023-04-15T04:43:43.359Z,28.69
2023-04-15T04:44:43.427Z,28.66
2023-04-15T04:45:43.490Z,28.65
2023-04-15T04:46:43.519Z,28.62
2023-04-15T04:47:43.569Z,28.66
2023-04-15T04:48:44.420Z,28.67
2023-04-15T04:49:43.672Z,28.63
2023-04-15T04:50:43.691Z,28.60
2023-04-15T04:51:43.767Z,28.59
2023-04-15T04:52:43.781Z,28.62
2023-04-15T04:53:43.813Z,28.62
2023-04-15T04:54:43.831Z,28.56
2023-04-15T04:55:43.948Z,28.57
2023-04-15T04:56:43.974Z,28.59
2023-04-15T04:57:44.024Z,28.57
2023-04-15T04:58:44.048Z,28.56
2023-04-15T04:59:44.119Z,28.57
2023-04-15T05:00:44.162Z,28.52
2023-04-15T05:01:44.316Z,28.51
2023-04-15T05:02:44.439Z,28.51
2023-04-15T05:03:44.383Z,28.49
2023-04-15T05:04:44.363Z,28.47
2023-04-15T05:05:44.480Z,28.48
2023-04-15T05:06:44.443Z,28.45
2023-04-15T05:07:44.518Z,28.45
2023-04-15T05:08:44.595Z,28.43
2023-04-15T05:09:44.656Z,28.43
2023-04-15T05:10:44.680Z,28.42
2023-04-15T05:11:45.124Z,28.41
2023-04-15T05:12:44.778Z,28.40
2023-04-15T05:13:44.877Z,28.37
2023-04-15T05:14:44.905Z,28.35
2023-04-15T05:15:45.001Z,28.34
2023-04-15T05:16:44.981Z,28.33
2023-04-15T05:17:45.120Z,28.34
2023-04-15T05:18:45.082Z,28.31
2023-04-15T05:19:45.155Z,28.27
2023-04-15T05:20:45.176Z,28.25
2023-04-15T05:21:45.302Z,28.27
2023-04-15T05:22:45.271Z,28.23
2023-04-15T05:23:45.352Z,28.25
2023-04-15T05:24:45.624Z,28.25
2023-04-15T05:25:45.426Z,28.22
2023-04-15T05:26:45.494Z,28.20
2023-04-15T05:27:45.547Z,28.19
2023-04-15T05:28:45.638Z,28.16
2023-04-15T05:29:45.700Z,28.15
2023-04-15T05:30:45.737Z,28.14
2023-04-15T05:31:45.798Z,28.15
2023-04-15T05:32:45.910Z,28.11
2023-04-15T05:33:45.866Z,28.06
2023-04-15T05:34:45.971Z,28.07
2023-04-15T05:35:45.971Z,28.05
2023-04-15T05:36:46.010Z,28.07
2023-04-15T05:37:46.065Z,28.07
2023-04-15T05:38:46.099Z,28.07
2023-04-15T05:39:46.146Z,28.04
2023-04-15T05:40:46.208Z,28.03
2023-04-15T05:41:46.232Z,28.04
2023-04-15T05:42:46.304Z,28.05
2023-04-15T05:43:46.318Z,28.03
2023-04-15T05:44:46.384Z,28.02
2023-04-15T05:45:46.571Z,28.04
2023-04-15T05:46:46.484Z,28.03
2023-04-15T05:47:46.657Z,28.03
2023-04-15T05:48:46.577Z,28.02
2023-04-15T05:49:46.656Z,28.00
2023-04-15T05:50:46.711Z,28.00
2023-04-15T05:51:46.750Z,28.01
2023-04-15T05:52:46.854Z,28.00
2023-04-15T05:53:46.878Z,27.98
2023-04-15T05:54:46.951Z,28.00
2023-04-15T05:55:46.949Z,28.02
2023-04-15T05:56:47.090Z,28.01
2023-04-15T05:57:47.101Z,28.04
2023-04-15T05:58:47.121Z,28.02
2023-04-15T05:59:47.182Z,28.01
2023-04-15T06:00:47.262Z,27.99
2023-04-15T06:01:47.385Z,27.99
2023-04-15T06:02:47.482Z,27.99
2023-04-15T06:03:47.529Z,27.97
2023-04-15T06:04:47.544Z,27.99
2023-04-15T06:05:47.607Z,27.98
2023-04-15T06:06:47.622Z,27.97
2023-04-15T06:07:48.739Z,27.96
2023-04-15T06:08:47.719Z,27.94
2023-04-15T06:09:47.784Z,27.92
2023-04-15T06:10:47.855Z,27.93
2023-04-15T06:11:47.937Z,27.91
2023-04-15T06:12:47.953Z,27.90
2023-04-15T06:13:48.016Z,27.87
2023-04-15T06:14:48.087Z,27.86
2023-04-15T06:15:48.143Z,27.86
2023-04-15T06:16:48.214Z,27.85
2023-04-15T06:17:48.285Z,27.84
2023-04-15T06:18:48.309Z,27.83
2023-04-15T06:19:48.326Z,27.83
2023-04-15T06:20:48.392Z,27.78
2023-04-15T06:21:48.421Z,27.80
2023-04-15T06:22:48.499Z,27.78
2023-04-15T06:23:48.558Z,27.78
2023-04-15T06:24:48.628Z,27.75
2023-04-15T06:25:48.649Z,27.76
2023-04-15T06:26:48.703Z,27.75
2023-04-15T06:27:48.734Z,27.75
2023-04-15T06:28:48.824Z,27.72
2023-04-15T06:29:48.849Z,27.70
2023-04-15T06:30:48.908Z,27.70
2023-04-15T06:31:49.012Z,27.70
2023-04-15T06:32:48.998Z,27.70
2023-04-15T06:33:49.027Z,27.69
2023-04-15T06:34:49.048Z,27.70
2023-04-15T06:35:49.184Z,27.69
2023-04-15T06:36:49.652Z,27.65
2023-04-15T06:37:49.263Z,27.66
2023-04-15T06:38:49.283Z,27.69
2023-04-15T06:39:49.360Z,27.64
2023-04-15T06:40:49.430Z,27.58
2023-04-15T06:41:49.533Z,27.60
2023-04-15T06:42:49.529Z,27.58
2023-04-15T06:43:49.561Z,27.56
2023-04-15T06:44:49.613Z,27.56
2023-04-15T06:45:49.744Z,27.55
2023-04-15T06:46:49.743Z,27.55
2023-04-15T06:47:49.801Z,27.53
2023-04-15T06:48:49.818Z,27.51
2023-04-15T06:49:49.817Z,27.47
2023-04-15T06:50:49.884Z,27.50
2023-04-15T06:51:49.936Z,27.49
2023-04-15T06:52:50.002Z,27.49
2023-04-15T06:53:50.093Z,27.47
2023-04-15T06:54:50.101Z,27.42
2023-04-15T06:55:50.167Z,27.44
2023-04-15T06:56:50.210Z,27.43
2023-04-15T06:57:50.262Z,27.43
2023-04-15T06:58:50.338Z,27.40
2023-04-15T06:59:52.171Z,27.40
2023-04-15T07:00:50.436Z,27.39
2023-04-15T07:01:50.516Z,27.39
2023-04-15T07:02:50.521Z,27.37
2023-04-15T07:03:50.634Z,27.37
2023-04-15T07:04:50.670Z,27.34
2023-04-15T07:05:50.699Z,27.34
2023-04-15T07:06:50.753Z,27.30
2023-04-15T07:07:50.824Z,27.33
2023-04-15T07:08:50.866Z,27.27
2023-04-15T07:09:50.928Z,27.30
2023-04-15T07:10:50.977Z,27.27
2023-04-15T07:11:51.015Z,27.24
2023-04-15T07:12:51.093Z,27.23
2023-04-15T07:13:51.140Z,27.22
2023-04-15T07:14:51.192Z,27.23
2023-04-15T07:15:51.264Z,27.22
2023-04-15T07:16:51.370Z,27.18
2023-04-15T07:17:51.408Z,27.18
2023-04-15T07:18:51.405Z,27.15
2023-04-15T07:19:51.454Z,27.16
2023-04-15T07:20:51.487Z,27.16
2023-04-15T07:21:51.576Z,27.11
2023-04-15T07:22:51.593Z,27.14
2023-04-15T07:23:51.649Z,27.13
2023-04-15T07:24:51.756Z,27.10
2023-04-15T07:25:51.747Z,27.11
2023-04-15T07:26:51.826Z,27.08
2023-04-15T07:27:51.883Z,27.05
2023-04-15T07:28:51.899Z,27.08
2023-04-15T07:29:51.975Z,27.08
2023-04-15T07:30:52.082Z,27.06
2023-04-15T07:31:52.080Z,27.06
2023-04-15T07:32:52.205Z,27.06
2023-04-15T07:33:52.182Z,27.05
2023-04-15T07:34:52.277Z,27.03
2023-04-15T07:35:52.300Z,27.06
2023-04-15T07:36:52.385Z,27.03
2023-04-15T07:37:52.423Z,27.01
2023-04-15T07:38:52.475Z,27.01
2023-04-15T07:39:52.544Z,27.01
2023-04-15T07:40:52.609Z,27.06
2023-04-15T07:41:52.639Z,27.05
2023-04-15T07:42:52.735Z,27.07
2023-04-15T07:43:52.776Z,27.08
2023-04-15T07:44:52.836Z,27.11
2023-04-15T07:45:52.920Z,27.10
2023-04-15T07:46:52.952Z,27.10
2023-04-15T07:47:53.022Z,27.11
2023-04-15T07:48:53.062Z,27.10
2023-04-15T07:49:53.122Z,27.14
2023-04-15T07:50:53.229Z,27.14
2023-04-15T07:51:53.245Z,27.15
2023-04-15T07:52:53.293Z,27.16
2023-04-15T07:53:53.373Z,27.16
2023-04-15T07:54:53.432Z,27.15
2023-04-15T07:55:53.476Z,27.17
2023-04-15T07:56:53.535Z,27.15
2023-04-15T07:57:53.599Z,27.13
2023-04-15T07:58:53.650Z,27.15
2023-04-15T07:59:53.734Z,27.11
2023-04-15T08:00:53.757Z,27.11
2023-04-15T08:01:53.933Z,27.10
2023-04-15T08:02:54.159Z,27.08
2023-04-15T08:03:54.005Z,27.08
2023-04-15T08:04:54.036Z,27.05
2023-04-15T08:05:54.056Z,26.98
2023-04-15T08:06:54.082Z,26.97
2023-04-15T08:07:54.152Z,26.98
2023-04-15T08:08:54.219Z,26.94
2023-04-15T08:09:54.291Z,26.90
2023-04-15T08:10:54.370Z,26.87
2023-04-15T08:11:54.410Z,26.84
2023-04-15T08:12:54.446Z,26.85
2023-04-15T08:13:54.451Z,26.80
2023-04-15T08:14:54.630Z,26.78
2023-04-15T08:15:54.601Z,26.76
2023-04-15T08:16:54.661Z,26.70
2023-04-15T08:17:54.772Z,26.68
2023-04-15T08:18:54.790Z,26.68
2023-04-15T08:19:54.833Z,26.67
2023-04-15T08:20:54.861Z,26.62
2023-04-15T08:21:54.880Z,26.59
2023-04-15T08:22:54.933Z,26.61
2023-04-15T08:23:54.953Z,26.56
2023-04-15T08:24:55.047Z,26.56
2023-04-15T08:25:55.085Z,26.54
2023-04-15T08:26:55.127Z,26.50
2023-04-15T08:27:55.169Z,26.49
2023-04-15T08:28:55.231Z,26.47
2023-04-15T08:29:55.326Z,26.47
2023-04-15T08:30:55.344Z,26.44
2023-04-15T08:31:55.490Z,26.42
2023-04-15T08:32:55.468Z,26.41
2023-04-15T08:33:55.494Z,26.38
2023-04-15T08:34:55.566Z,26.37
2023-04-15T08:35:55.589Z,26.37
2023-04-15T08:36:55.647Z,26.34
2023-04-15T08:37:55.707Z,26.36
2023-04-15T08:38:55.824Z,26.34
2023-04-15T08:39:55.868Z,26.30
2023-04-15T08:40:55.897Z,26.33
2023-04-15T08:41:55.994Z,26.30
2023-04-15T08:42:56.023Z,26.30
2023-04-15T08:43:56.069Z,26.24
2023-04-15T08:44:56.181Z,26.25
2023-04-15T08:45:56.222Z,26.22
2023-04-15T08:46:56.315Z,26.21
2023-04-15T08:47:56.366Z,26.22
2023-04-15T08:48:56.407Z,26.23
2023-04-15T08:49:56.469Z,26.17
2023-04-15T08:50:56.478Z,26.16
2023-04-15T08:51:56.529Z,26.13
2023-04-15T08:52:56.611Z,26.14
2023-04-15T08:53:56.664Z,26.15
2023-04-15T08:54:56.731Z,26.11
2023-04-15T08:55:56.796Z,26.11
2023-04-15T08:56:56.892Z,26.11
2023-04-15T08:57:56.907Z,26.07
2023-04-15T08:58:56.918Z,26.09
2023-04-15T08:59:57.000Z,26.05
2023-04-15T09:00:57.049Z,26.03
2023-04-15T09:01:57.106Z,26.05
2023-04-15T09:02:57.203Z,26.03
2023-04-15T09:03:57.307Z,25.95
2023-04-15T09:04:57.281Z,25.95
2023-04-15T09:05:57.323Z,25.96
2023-04-15T09:06:57.384Z,25.91
2023-04-15T09:07:57.422Z,25.94
2023-04-15T09:08:57.470Z,25.92
2023-04-15T09:09:57.544Z,25.86
2023-04-15T09:10:57.570Z,25.89
2023-04-15T09:11:57.624Z,25.86
2023-04-15T09:12:57.749Z,25.83
2023-04-15T09:13:57.744Z,25.83
2023-04-15T09:14:57.817Z,25.78
2023-04-15T09:15:57.917Z,25.80
2023-04-15T09:16:57.955Z,25.82
2023-04-15T09:17:58.087Z,25.81
2023-04-15T09:18:58.012Z,25.79
2023-04-15T09:19:58.125Z,25.80
2023-04-15T09:20:58.138Z,25.76
2023-04-15T09:21:59.120Z,25.76
2023-04-15T09:22:58.236Z,25.77
2023-04-15T09:23:58.404Z,25.79
2023-04-15T09:24:58.436Z,25.76
2023-04-15T09:25:58.405Z,25.77
2023-04-15T09:26:58.482Z,25.78
2023-04-15T09:27:58.552Z,25.80
2023-04-15T09:28:58.571Z,25.78
2023-04-15T09:29:58.718Z,25.78
2023-04-15T09:30:58.718Z,25.78
2023-04-15T09:31:58.708Z,25.78
2023-04-15T09:32:58.820Z,25.76
2023-04-15T09:33:58.824Z,25.79
2023-04-15T09:34:58.920Z,25.78
2023-04-15T09:35:58.950Z,25.77
2023-04-15T09:36:58.997Z,25.77
2023-04-15T09:37:59.029Z,25.75
2023-04-15T09:38:59.123Z,25.70
2023-04-15T09:39:59.121Z,25.70
2023-04-15T09:40:59.203Z,25.69
2023-04-15T09:41:59.258Z,25.69
2023-04-15T09:42:59.275Z,25.69
2023-04-15T09:43:59.362Z,25.66
2023-04-15T09:44:59.408Z,25.71
2023-04-15T09:45:59.525Z,25.71
2023-04-15T09:46:59.517Z,25.72
2023-04-15T09:47:59.632Z,25.70
2023-04-15T09:48:59.669Z,25.70
2023-04-15T09:49:59.805Z,25.72
2023-04-15T09:50:59.781Z,25.68
2023-04-15T09:52:05.068Z,25.69
2023-04-15T09:53:00.792Z,25.69
2023-04-15T09:53:59.989Z,25.69
2023-04-15T09:54:59.761Z,25.66
2023-04-15T09:55:59.784Z,25.67
2023-04-15T09:56:59.743Z,25.68
2023-04-15T09:57:59.764Z,25.68
2023-04-15T09:58:59.781Z,25.65
2023-04-15T09:59:59.742Z,25.63
2023-04-15T10:00:59.802Z,25.68
2023-04-15T10:01:59.854Z,25.65
2023-04-15T10:02:59.979Z,25.66
2023-04-15T10:04:00.047Z,25.69
2023-04-15T10:04:59.990Z,25.68
2023-04-15T10:06:00.065Z,25.70
2023-04-15T10:07:00.071Z,25.70
2023-04-15T10:08:00.116Z,25.70
2023-04-15T10:09:00.208Z,25.72
2023-04-15T10:10:00.234Z,25.75
2023-04-15T10:11:00.308Z,25.75
2023-04-15T10:12:00.387Z,25.76
2023-04-15T10:13:00.450Z,25.77
2023-04-15T10:14:00.880Z,25.77
2023-04-15T10:15:00.535Z,25.82
2023-04-15T10:16:00.710Z,25.82
2023-04-15T10:17:00.677Z,25.85
2023-04-15T10:18:00.724Z,25.85
2023-04-15T10:19:00.766Z,25.88
2023-04-15T10:20:00.806Z,25.89
2023-04-15T10:21:00.845Z,25.92
2023-04-15T10:22:00.917Z,25.93
2023-04-15T10:23:00.997Z,25.95
2023-04-15T10:24:01.246Z,25.95
2023-04-15T10:25:01.088Z,25.99
2023-04-15T10:26:01.146Z,26.01
2023-04-15T10:27:01.197Z,26.04
2023-04-15T10:28:01.264Z,26.03
2023-04-15T10:29:01.334Z,26.07
2023-04-15T10:30:01.383Z,26.07
2023-04-15T10:31:01.597Z,26.12
2023-04-15T10:32:01.506Z,26.13
2023-04-15T10:33:01.578Z,26.14
2023-04-15T10:34:01.830Z,26.17
2023-04-15T10:35:01.683Z,26.19
2023-04-15T10:36:01.762Z,26.22
2023-04-15T10:37:01.729Z,26.23
2023-04-15T10:38:01.804Z,26.28
2023-04-15T10:39:01.898Z,26.27
2023-04-15T10:40:02.054Z,26.31
2023-04-15T10:41:02.024Z,26.36
2023-04-15T10:42:02.015Z,26.40
2023-04-15T10:43:02.085Z,26.39
2023-04-15T10:44:02.474Z,26.41
2023-04-15T10:45:02.170Z,26.45
2023-04-15T10:46:02.238Z,26.48
2023-04-15T10:47:02.306Z,26.50
2023-04-15T10:48:03.805Z,26.55
2023-04-15T10:49:02.756Z,26.58
2023-04-15T10:50:02.670Z,26.61
2023-04-15T10:51:02.544Z,26.65
2023-04-15T10:52:02.554Z,26.69
2023-04-15T10:53:02.643Z,26.70
2023-04-15T10:54:02.679Z,26.73
2023-04-15T10:55:02.765Z,26.74
2023-04-15T10:56:02.836Z,26.78
2023-04-15T10:57:02.900Z,26.79
2023-04-15T10:58:02.920Z,26.84
2023-04-15T10:59:03.003Z,26.82
2023-04-15T11:00:03.078Z,26.86
2023-04-15T11:01:03.132Z,26.88
2023-04-15T11:02:03.289Z,26.92
2023-04-15T11:03:03.298Z,26.93
2023-04-15T11:04:03.603Z,26.95
2023-04-15T11:05:03.386Z,26.98
2023-04-15T11:06:03.428Z,27.00
2023-04-15T11:07:03.445Z,26.99
2023-04-15T11:08:03.519Z,27.05
2023-04-15T11:09:03.589Z,27.06
2023-04-15T11:10:03.662Z,27.09
2023-04-15T11:11:03.724Z,27.10
2023-04-15T11:12:03.744Z,27.15
2023-04-15T11:13:03.813Z,27.19
2023-04-15T11:14:04.048Z,27.17
2023-04-15T11:15:03.953Z,27.16
2023-04-15T11:16:04.838Z,27.19
2023-04-15T11:17:04.095Z,27.21
2023-04-15T11:18:04.147Z,27.23
2023-04-15T11:19:04.155Z,27.19
2023-04-15T11:20:04.267Z,27.21
2023-04-15T11:21:04.303Z,27.23
2023-04-15T11:22:04.326Z,27.22
2023-04-15T11:23:13.396Z,27.24
2023-04-15T11:24:05.689Z,27.23
2023-04-15T11:25:04.393Z,27.24
2023-04-15T11:26:04.385Z,27.26
2023-04-15T11:27:04.443Z,27.26
2023-04-15T11:28:04.334Z,27.25
2023-04-15T11:29:04.673Z,27.24
2023-04-15T11:30:04.334Z,27.27
2023-04-15T11:31:04.356Z,27.26
2023-04-15T11:32:04.405Z,27.30
2023-04-15T11:33:04.529Z,27.30
2023-04-15T11:34:04.553Z,27.30
2023-04-15T11:35:04.584Z,27.30
2023-04-15T11:36:04.597Z,27.31
2023-04-15T11:37:04.625Z,27.34
2023-04-15T11:38:04.694Z,27.35
2023-04-15T11:39:04.759Z,27.35
2023-04-15T11:40:04.836Z,27.38
2023-04-15T11:41:04.890Z,27.36
2023-04-15T11:42:04.901Z,27.38
2023-04-15T11:43:04.975Z,27.38
2023-04-15T11:44:05.123Z,27.38
2023-04-15T11:45:05.094Z,27.39
2023-04-15T11:46:05.326Z,27.36
2023-04-15T11:47:05.225Z,27.39
2023-04-15T11:48:05.294Z,27.40
2023-04-15T11:49:05.324Z,27.40
2023-04-15T11:50:05.378Z,27.40
2023-04-15T11:51:05.494Z,27.39
2023-04-15T11:52:05.498Z,27.40
2023-04-15T11:53:08.137Z,27.42
2023-04-15T11:54:05.816Z,27.45
2023-04-15T11:55:05.564Z,27.45
2023-04-15T11:56:05.611Z,27.47
2023-04-15T11:57:05.516Z,27.50
2023-04-15T11:58:05.517Z,27.50
2023-04-15T11:59:05.543Z,27.54
2023-04-15T12:00:05.499Z,27.54
2023-04-15T12:01:05.485Z,27.56
2023-04-15T12:02:05.555Z,27.57
2023-04-15T12:03:05.682Z,27.54
2023-04-15T12:04:05.657Z,27.56
2023-04-15T12:05:05.543Z,27.58
2023-04-15T12:06:05.455Z,27.58
2023-04-15T12:07:05.442Z,27.64
2023-04-15T12:08:05.469Z,27.64
2023-04-15T12:09:05.436Z,27.64
2023-04-15T12:10:05.427Z,27.67
2023-04-15T12:11:05.456Z,27.68
2023-04-15T12:12:05.393Z,27.70
2023-04-15T12:13:05.499Z,27.71
2023-04-15T12:14:05.599Z,27.75
2023-04-15T12:15:05.382Z,27.76
2023-04-15T12:16:05.826Z,27.79
2023-04-15T12:17:05.462Z,27.79
2023-04-15T12:18:06.250Z,27.80
2023-04-15T12:19:05.351Z,27.81
2023-04-15T12:20:05.423Z,27.79
2023-04-15T12:21:05.352Z,27.82
2023-04-15T12:22:05.454Z,27.81
2023-04-15T12:23:05.376Z,27.83
2023-04-15T12:24:05.561Z,27.83
2023-04-15T12:25:05.361Z,27.85
2023-04-15T12:26:05.309Z,27.87
2023-04-15T12:27:05.334Z,27.88
2023-04-15T12:28:05.357Z,27.87
2023-04-15T12:29:05.281Z,27.86
2023-04-15T12:30:05.786Z,27.90
2023-04-15T12:31:05.449Z,27.94
2023-04-15T12:32:05.492Z,27.94
2023-04-15T12:33:05.608Z,27.96
2023-04-15T12:34:05.904Z,27.97
2023-04-15T12:35:05.628Z,28.00
2023-04-15T12:36:05.669Z,28.01
2023-04-15T12:37:05.686Z,28.03
2023-04-15T12:38:05.766Z,28.03
2023-04-15T12:39:05.822Z,28.04
2023-04-15T12:40:05.885Z,28.06
2023-04-15T12:41:05.918Z,28.07
2023-04-15T12:42:05.937Z,28.08
2023-04-15T12:43:05.992Z,28.09
2023-04-15T12:44:06.301Z,28.11
2023-04-15T12:45:06.093Z,28.14
2023-04-15T12:46:06.220Z,28.15
2023-04-15T12:47:06.234Z,28.14
2023-04-15T12:48:06.233Z,28.15
2023-04-15T12:49:06.308Z,28.14
2023-04-15T12:50:06.334Z,28.22
2023-04-15T12:51:06.437Z,28.22
2023-04-15T12:52:06.438Z,28.24
2023-04-15T12:53:06.497Z,28.24